sensor_id;sensor_type;location;lat;lon;timestamp;P1;durP1;ratioP1;P2;durP2;ratioP2
76848;SDS011;65814;51.134;16.980;2024-03-17T00:00:05;5.30;;;2.80;;
76848;SDS011;65814;51.134;16.980;2024-03-17T00:02:36;3.90;;;2.40;;
76848;SDS011;65814;51.134;16.980;2024-03-17T00:05:04;5.40;;;3.20;;
76848;SDS011;65814;51.134;16.980;2024-03-17T00:07:32;6.50;;;3.10;;
76848;SDS011;65814;51.134;16.980;2024-03-17T00:09:59;4.80;;;2.90;;
76848;SDS011;65814;51.134;16.980;2024-03-17T00:12:27;4.80;;;2.40;;
76848;SDS011;65814;51.134;16.980;2024-03-17T00:14:55;5.40;;;2.40;;
76848;SDS011;65814;51.134;16.980;2024-03-17T00:17:22;4.80;;;2.20;;
76848;SDS011;65814;51.134;16.980;2024-03-17T00:19:50;5.90;;;2.40;;
76848;SDS011;65814;51.134;16.980;2024-03-17T00:22:18;7.30;;;2.90;;
76848;SDS011;65814;51.134;16.980;2024-03-17T00:24:46;5.10;;;2.90;;
76848;SDS011;65814;51.134;16.980;2024-03-17T00:27:13;6.90;;;3.20;;
76848;SDS011;65814;51.134;16.980;2024-03-17T00:29:41;5.20;;;2.70;;
76848;SDS011;65814;51.134;16.980;2024-03-17T00:32:08;4.00;;;2.50;;
76848;SDS011;65814;51.134;16.980;2024-03-17T00:34:38;6.70;;;2.40;;
76848;SDS011;65814;51.134;16.980;2024-03-17T00:37:06;4.00;;;2.50;;
76848;SDS011;65814;51.134;16.980;2024-03-17T00:39:35;4.10;;;2.40;;
76848;SDS011;65814;51.134;16.980;2024-03-17T00:42:05;2.40;;;2.00;;
76848;SDS011;65814;51.134;16.980;2024-03-17T00:44:34;5.20;;;2.90;;
76848;SDS011;65814;51.134;16.980;2024-03-17T00:47:02;5.80;;;2.60;;
76848;SDS011;65814;51.134;16.980;2024-03-17T00:49:30;4.70;;;2.10;;
76848;SDS011;65814;51.134;16.980;2024-03-17T00:51:57;10.30;;;3.10;;
76848;SDS011;65814;51.134;16.980;2024-03-17T00:54:25;9.50;;;2.70;;
76848;SDS011;65814;51.134;16.980;2024-03-17T00:56:52;3.70;;;2.80;;
76848;SDS011;65814;51.134;16.980;2024-03-17T00:59:20;8.40;;;2.80;;
76848;SDS011;65814;51.134;16.980;2024-03-17T01:01:48;5.60;;;2.50;;
76848;SDS011;65814;51.134;16.980;2024-03-17T01:04:15;6.00;;;3.30;;
76848;SDS011;65814;51.134;16.980;2024-03-17T01:06:43;6.90;;;2.70;;
76848;SDS011;65814;51.134;16.980;2024-03-17T01:09:11;4.40;;;2.40;;
76848;SDS011;65814;51.134;16.980;2024-03-17T01:11:38;8.80;;;3.40;;
76848;SDS011;65814;51.134;16.980;2024-03-17T01:14:06;8.40;;;4.10;;
76848;SDS011;65814;51.134;16.980;2024-03-17T01:16:35;7.30;;;2.80;;
76848;SDS011;65814;51.134;16.980;2024-03-17T01:19:03;3.80;;;3.10;;
76848;SDS011;65814;51.134;16.980;2024-03-17T01:21:32;6.40;;;3.10;;
76848;SDS011;65814;51.134;16.980;2024-03-17T01:23:59;6.10;;;2.70;;
76848;SDS011;65814;51.134;16.980;2024-03-17T01:26:27;5.80;;;3.10;;
76848;SDS011;65814;51.134;16.980;2024-03-17T01:28:58;5.80;;;3.00;;
76848;SDS011;65814;51.134;16.980;2024-03-17T01:31:25;5.10;;;3.10;;
76848;SDS011;65814;51.134;16.980;2024-03-17T01:33:53;4.40;;;2.60;;
76848;SDS011;65814;51.134;16.980;2024-03-17T01:36:21;5.50;;;2.60;;
76848;SDS011;65814;51.134;16.980;2024-03-17T01:38:49;5.30;;;2.60;;
76848;SDS011;65814;51.134;16.980;2024-03-17T01:41:17;4.60;;;2.80;;
76848;SDS011;65814;51.134;16.980;2024-03-17T01:43:44;4.40;;;2.50;;
76848;SDS011;65814;51.134;16.980;2024-03-17T01:46:12;4.20;;;2.80;;
76848;SDS011;65814;51.134;16.980;2024-03-17T01:48:43;8.50;;;2.80;;
76848;SDS011;65814;51.134;16.980;2024-03-17T01:51:13;6.90;;;2.80;;
76848;SDS011;65814;51.134;16.980;2024-03-17T01:53:42;5.50;;;2.60;;
76848;SDS011;65814;51.134;16.980;2024-03-17T01:56:10;4.10;;;2.80;;
76848;SDS011;65814;51.134;16.980;2024-03-17T01:58:38;7.10;;;3.30;;
76848;SDS011;65814;51.134;16.980;2024-03-17T02:01:05;5.90;;;3.20;;
76848;SDS011;65814;51.134;16.980;2024-03-17T02:03:33;4.80;;;2.50;;
76848;SDS011;65814;51.134;16.980;2024-03-17T02:06:01;6.80;;;2.90;;
76848;SDS011;65814;51.134;16.980;2024-03-17T02:08:29;9.40;;;3.20;;
76848;SDS011;65814;51.134;16.980;2024-03-17T02:14:10;5.80;;;2.70;;
76848;SDS011;65814;51.134;16.980;2024-03-17T02:16:41;6.30;;;2.50;;
76848;SDS011;65814;51.134;16.980;2024-03-17T02:19:08;7.10;;;2.50;;
76848;SDS011;65814;51.134;16.980;2024-03-17T02:21:36;3.60;;;2.20;;
76848;SDS011;65814;51.134;16.980;2024-03-17T02:24:05;8.00;;;2.70;;
76848;SDS011;65814;51.134;16.980;2024-03-17T02:26:35;5.40;;;2.50;;
76848;SDS011;65814;51.134;16.980;2024-03-17T02:29:02;5.60;;;2.40;;
76848;SDS011;65814;51.134;16.980;2024-03-17T02:31:30;6.20;;;2.80;;
76848;SDS011;65814;51.134;16.980;2024-03-17T02:33:57;4.60;;;2.40;;
76848;SDS011;65814;51.134;16.980;2024-03-17T02:36:25;4.60;;;2.10;;
76848;SDS011;65814;51.134;16.980;2024-03-17T02:38:53;5.00;;;2.20;;
76848;SDS011;65814;51.134;16.980;2024-03-17T02:41:43;4.60;;;2.70;;
76848;SDS011;65814;51.134;16.980;2024-03-17T02:44:11;4.60;;;2.30;;
76848;SDS011;65814;51.134;16.980;2024-03-17T02:46:39;6.50;;;2.50;;
76848;SDS011;65814;51.134;16.980;2024-03-17T02:49:06;3.90;;;2.00;;
76848;SDS011;65814;51.134;16.980;2024-03-17T02:51:36;4.10;;;2.00;;
76848;SDS011;65814;51.134;16.980;2024-03-17T02:54:03;3.70;;;1.90;;
76848;SDS011;65814;51.134;16.980;2024-03-17T02:56:34;6.60;;;2.50;;
76848;SDS011;65814;51.134;16.980;2024-03-17T02:59:01;3.90;;;2.30;;
76848;SDS011;65814;51.134;16.980;2024-03-17T03:01:29;3.80;;;2.60;;
76848;SDS011;65814;51.134;16.980;2024-03-17T03:03:56;4.50;;;2.50;;
76848;SDS011;65814;51.134;16.980;2024-03-17T03:06:24;5.30;;;2.60;;
76848;SDS011;65814;51.134;16.980;2024-03-17T03:08:52;8.40;;;2.80;;
76848;SDS011;65814;51.134;16.980;2024-03-17T03:11:20;5.70;;;3.80;;
76848;SDS011;65814;51.134;16.980;2024-03-17T03:13:48;6.80;;;2.70;;
76848;SDS011;65814;51.134;16.980;2024-03-17T03:16:15;6.20;;;2.80;;
76848;SDS011;65814;51.134;16.980;2024-03-17T03:18:43;3.70;;;2.30;;
76848;SDS011;65814;51.134;16.980;2024-03-17T03:21:11;7.70;;;2.30;;
76848;SDS011;65814;51.134;16.980;2024-03-17T03:23:42;7.20;;;2.80;;
76848;SDS011;65814;51.134;16.980;2024-03-17T03:26:12;6.40;;;2.50;;
76848;SDS011;65814;51.134;16.980;2024-03-17T03:28:39;9.00;;;3.50;;
76848;SDS011;65814;51.134;16.980;2024-03-17T03:31:10;4.10;;;2.50;;
76848;SDS011;65814;51.134;16.980;2024-03-17T03:33:40;5.50;;;2.40;;
76848;SDS011;65814;51.134;16.980;2024-03-17T03:38:38;8.70;;;3.00;;
76848;SDS011;65814;51.134;16.980;2024-03-17T03:41:09;3.90;;;2.50;;
76848;SDS011;65814;51.134;16.980;2024-03-17T03:43:37;4.30;;;2.80;;
76848;SDS011;65814;51.134;16.980;2024-03-17T03:46:05;4.90;;;1.90;;
76848;SDS011;65814;51.134;16.980;2024-03-17T03:48:39;6.60;;;2.40;;
76848;SDS011;65814;51.134;16.980;2024-03-17T03:51:07;4.60;;;3.20;;
76848;SDS011;65814;51.134;16.980;2024-03-17T03:53:36;7.80;;;2.50;;
76848;SDS011;65814;51.134;16.980;2024-03-17T03:56:05;4.90;;;2.60;;
76848;SDS011;65814;51.134;16.980;2024-03-17T03:58:38;8.40;;;2.50;;
76848;SDS011;65814;51.134;16.980;2024-03-17T04:01:08;6.10;;;2.90;;
76848;SDS011;65814;51.134;16.980;2024-03-17T04:03:36;7.70;;;2.70;;
76848;SDS011;65814;51.134;16.980;2024-03-17T04:06:07;6.60;;;2.90;;
76848;SDS011;65814;51.134;16.980;2024-03-17T04:08:37;7.10;;;2.80;;
76848;SDS011;65814;51.134;16.980;2024-03-17T04:11:07;5.10;;;2.30;;
76848;SDS011;65814;51.134;16.980;2024-03-17T04:13:35;3.90;;;2.40;;
76848;SDS011;65814;51.134;16.980;2024-03-17T04:16:04;3.70;;;2.30;;
76848;SDS011;65814;51.134;16.980;2024-03-17T04:18:33;5.20;;;2.40;;
76848;SDS011;65814;51.134;16.980;2024-03-17T04:21:02;4.50;;;2.30;;
76848;SDS011;65814;51.134;16.980;2024-03-17T04:23:31;7.50;;;3.10;;
76848;SDS011;65814;51.134;16.980;2024-03-17T04:26:00;6.60;;;2.60;;
76848;SDS011;65814;51.134;16.980;2024-03-17T04:28:28;7.30;;;3.40;;
76848;SDS011;65814;51.134;16.980;2024-03-17T04:31:05;8.60;;;2.80;;
76848;SDS011;65814;51.134;16.980;2024-03-17T04:33:33;6.90;;;2.40;;
76848;SDS011;65814;51.134;16.980;2024-03-17T04:36:04;7.20;;;2.60;;
76848;SDS011;65814;51.134;16.980;2024-03-17T04:38:32;4.80;;;2.60;;
76848;SDS011;65814;51.134;16.980;2024-03-17T04:41:02;6.40;;;2.50;;
76848;SDS011;65814;51.134;16.980;2024-03-17T04:43:35;10.40;;;3.20;;
76848;SDS011;65814;51.134;16.980;2024-03-17T04:46:04;7.20;;;2.40;;
76848;SDS011;65814;51.134;16.980;2024-03-17T04:48:34;8.40;;;2.50;;
76848;SDS011;65814;51.134;16.980;2024-03-17T04:51:02;6.10;;;2.90;;
76848;SDS011;65814;51.134;16.980;2024-03-17T04:53:29;5.90;;;2.70;;
76848;SDS011;65814;51.134;16.980;2024-03-17T04:56:00;4.80;;;2.40;;
76848;SDS011;65814;51.134;16.980;2024-03-17T04:58:32;4.10;;;2.70;;
76848;SDS011;65814;51.134;16.980;2024-03-17T05:01:07;4.60;;;3.00;;
76848;SDS011;65814;51.134;16.980;2024-03-17T05:03:35;7.10;;;3.50;;
76848;SDS011;65814;51.134;16.980;2024-03-17T05:06:03;5.90;;;3.50;;
76848;SDS011;65814;51.134;16.980;2024-03-17T05:08:32;4.80;;;3.20;;
76848;SDS011;65814;51.134;16.980;2024-03-17T05:11:02;7.80;;;2.90;;
76848;SDS011;65814;51.134;16.980;2024-03-17T05:13:34;8.50;;;2.80;;
76848;SDS011;65814;51.134;16.980;2024-03-17T05:16:05;6.60;;;2.50;;
76848;SDS011;65814;51.134;16.980;2024-03-17T05:18:33;6.50;;;2.50;;
76848;SDS011;65814;51.134;16.980;2024-03-17T05:21:04;4.20;;;2.20;;
76848;SDS011;65814;51.134;16.980;2024-03-17T05:23:33;7.90;;;2.90;;
76848;SDS011;65814;51.134;16.980;2024-03-17T05:26:02;5.30;;;2.20;;
76848;SDS011;65814;51.134;16.980;2024-03-17T05:28:35;3.90;;;2.30;;
76848;SDS011;65814;51.134;16.980;2024-03-17T05:31:02;5.70;;;2.40;;
76848;SDS011;65814;51.134;16.980;2024-03-17T05:33:30;4.30;;;2.10;;
76848;SDS011;65814;51.134;16.980;2024-03-17T05:35:58;8.30;;;2.80;;
76848;SDS011;65814;51.134;16.980;2024-03-17T05:38:27;4.20;;;2.30;;
76848;SDS011;65814;51.134;16.980;2024-03-17T05:40:56;4.60;;;2.30;;
76848;SDS011;65814;51.134;16.980;2024-03-17T05:43:24;9.10;;;2.70;;
76848;SDS011;65814;51.134;16.980;2024-03-17T05:45:52;5.70;;;2.80;;
76848;SDS011;65814;51.134;16.980;2024-03-17T05:48:20;6.30;;;2.60;;
76848;SDS011;65814;51.134;16.980;2024-03-17T05:50:48;5.70;;;2.90;;
76848;SDS011;65814;51.134;16.980;2024-03-17T05:53:16;6.40;;;2.70;;
76848;SDS011;65814;51.134;16.980;2024-03-17T05:55:45;3.90;;;2.20;;
76848;SDS011;65814;51.134;16.980;2024-03-17T05:58:12;6.30;;;2.40;;
76848;SDS011;65814;51.134;16.980;2024-03-17T06:00:40;7.80;;;2.80;;
76848;SDS011;65814;51.134;16.980;2024-03-17T06:03:08;6.30;;;2.10;;
76848;SDS011;65814;51.134;16.980;2024-03-17T06:05:36;5.60;;;2.10;;
76848;SDS011;65814;51.134;16.980;2024-03-17T06:08:05;5.60;;;2.60;;
76848;SDS011;65814;51.134;16.980;2024-03-17T06:10:36;3.60;;;1.90;;
76848;SDS011;65814;51.134;16.980;2024-03-17T06:13:04;7.40;;;2.50;;
76848;SDS011;65814;51.134;16.980;2024-03-17T06:15:32;7.00;;;2.80;;
76848;SDS011;65814;51.134;16.980;2024-03-17T06:18:00;7.00;;;2.00;;
76848;SDS011;65814;51.134;16.980;2024-03-17T06:20:29;4.40;;;1.70;;
76848;SDS011;65814;51.134;16.980;2024-03-17T06:22:56;7.40;;;2.60;;
76848;SDS011;65814;51.134;16.980;2024-03-17T06:25:24;6.40;;;1.60;;
76848;SDS011;65814;51.134;16.980;2024-03-17T06:27:52;7.20;;;2.30;;
76848;SDS011;65814;51.134;16.980;2024-03-17T06:30:19;2.60;;;1.40;;
76848;SDS011;65814;51.134;16.980;2024-03-17T06:32:48;3.60;;;1.70;;
76848;SDS011;65814;51.134;16.980;2024-03-17T06:35:17;2.30;;;1.70;;
76848;SDS011;65814;51.134;16.980;2024-03-17T06:37:45;6.70;;;1.50;;
76848;SDS011;65814;51.134;16.980;2024-03-17T06:40:13;2.90;;;1.70;;
76848;SDS011;65814;51.134;16.980;2024-03-17T06:42:42;4.30;;;2.00;;
76848;SDS011;65814;51.134;16.980;2024-03-17T06:45:09;6.10;;;1.80;;
76848;SDS011;65814;51.134;16.980;2024-03-17T06:47:37;9.70;;;2.50;;
76848;SDS011;65814;51.134;16.980;2024-03-17T06:50:05;5.50;;;1.90;;
76848;SDS011;65814;51.134;16.980;2024-03-17T06:52:37;4.90;;;1.80;;
76848;SDS011;65814;51.134;16.980;2024-03-17T06:55:05;5.80;;;2.30;;
76848;SDS011;65814;51.134;16.980;2024-03-17T06:57:34;3.90;;;1.90;;
76848;SDS011;65814;51.134;16.980;2024-03-17T07:00:02;6.40;;;2.40;;
76848;SDS011;65814;51.134;16.980;2024-03-17T07:02:32;7.10;;;1.90;;
76848;SDS011;65814;51.134;16.980;2024-03-17T07:05:00;7.40;;;2.10;;
76848;SDS011;65814;51.134;16.980;2024-03-17T07:07:27;3.90;;;2.00;;
76848;SDS011;65814;51.134;16.980;2024-03-17T07:09:55;9.20;;;1.80;;
76848;SDS011;65814;51.134;16.980;2024-03-17T07:12:23;6.40;;;1.80;;
76848;SDS011;65814;51.134;16.980;2024-03-17T07:14:51;6.50;;;2.00;;
76848;SDS011;65814;51.134;16.980;2024-03-17T07:17:19;6.10;;;1.70;;
76848;SDS011;65814;51.134;16.980;2024-03-17T07:19:46;6.50;;;1.80;;
76848;SDS011;65814;51.134;16.980;2024-03-17T07:22:14;9.70;;;2.00;;
76848;SDS011;65814;51.134;16.980;2024-03-17T07:24:41;5.50;;;1.30;;
76848;SDS011;65814;51.134;16.980;2024-03-17T07:27:11;6.90;;;2.20;;
76848;SDS011;65814;51.134;16.980;2024-03-17T07:29:41;4.50;;;1.70;;
76848;SDS011;65814;51.134;16.980;2024-03-17T07:32:08;8.00;;;2.10;;
76848;SDS011;65814;51.134;16.980;2024-03-17T07:34:36;6.10;;;2.40;;
76848;SDS011;65814;51.134;16.980;2024-03-17T07:37:04;3.00;;;1.70;;
76848;SDS011;65814;51.134;16.980;2024-03-17T07:39:31;4.10;;;1.60;;
76848;SDS011;65814;51.134;16.980;2024-03-17T07:41:59;4.70;;;2.40;;
76848;SDS011;65814;51.134;16.980;2024-03-17T07:44:29;10.50;;;1.90;;
76848;SDS011;65814;51.134;16.980;2024-03-17T07:47:01;6.30;;;2.00;;
76848;SDS011;65814;51.134;16.980;2024-03-17T07:49:33;9.40;;;2.30;;
76848;SDS011;65814;51.134;16.980;2024-03-17T07:52:01;11.00;;;2.60;;
76848;SDS011;65814;51.134;16.980;2024-03-17T07:54:29;4.90;;;2.20;;
76848;SDS011;65814;51.134;16.980;2024-03-17T07:56:57;6.70;;;1.80;;
76848;SDS011;65814;51.134;16.980;2024-03-17T07:59:24;7.30;;;1.80;;
76848;SDS011;65814;51.134;16.980;2024-03-17T08:01:52;7.90;;;2.50;;
76848;SDS011;65814;51.134;16.980;2024-03-17T08:04:20;5.30;;;2.30;;
76848;SDS011;65814;51.134;16.980;2024-03-17T08:06:47;5.50;;;1.60;;
76848;SDS011;65814;51.134;16.980;2024-03-17T08:09:15;3.10;;;1.60;;
76848;SDS011;65814;51.134;16.980;2024-03-17T08:11:43;3.70;;;1.80;;
76848;SDS011;65814;51.134;16.980;2024-03-17T08:14:13;6.60;;;1.60;;
76848;SDS011;65814;51.134;16.980;2024-03-17T08:16:43;7.60;;;1.70;;
76848;SDS011;65814;51.134;16.980;2024-03-17T08:19:10;6.70;;;2.10;;
76848;SDS011;65814;51.134;16.980;2024-03-17T08:21:38;4.30;;;1.70;;
76848;SDS011;65814;51.134;16.980;2024-03-17T08:24:05;6.50;;;2.00;;
76848;SDS011;65814;51.134;16.980;2024-03-17T08:26:33;4.80;;;1.70;;
76848;SDS011;65814;51.134;16.980;2024-03-17T08:29:01;6.60;;;1.70;;
76848;SDS011;65814;51.134;16.980;2024-03-17T08:31:28;8.20;;;1.90;;
76848;SDS011;65814;51.134;16.980;2024-03-17T08:33:56;8.80;;;1.70;;
76848;SDS011;65814;51.134;16.980;2024-03-17T08:36:23;5.40;;;1.50;;
76848;SDS011;65814;51.134;16.980;2024-03-17T08:38:52;4.50;;;2.20;;
76848;SDS011;65814;51.134;16.980;2024-03-17T08:41:20;8.50;;;1.90;;
76848;SDS011;65814;51.134;16.980;2024-03-17T08:43:48;6.10;;;2.30;;
76848;SDS011;65814;51.134;16.980;2024-03-17T08:46:15;6.00;;;1.90;;
76848;SDS011;65814;51.134;16.980;2024-03-17T08:48:43;7.40;;;1.60;;
76848;SDS011;65814;51.134;16.980;2024-03-17T08:51:11;5.80;;;1.50;;
76848;SDS011;65814;51.134;16.980;2024-03-17T08:53:38;3.30;;;1.70;;
76848;SDS011;65814;51.134;16.980;2024-03-17T08:56:07;5.90;;;1.50;;
76848;SDS011;65814;51.134;16.980;2024-03-17T08:58:35;6.60;;;1.50;;
76848;SDS011;65814;51.134;16.980;2024-03-17T09:01:03;5.70;;;1.60;;
76848;SDS011;65814;51.134;16.980;2024-03-17T09:03:34;5.40;;;1.90;;
76848;SDS011;65814;51.134;16.980;2024-03-17T09:06:03;4.60;;;1.90;;
76848;SDS011;65814;51.134;16.980;2024-03-17T09:08:31;10.30;;;2.10;;
76848;SDS011;65814;51.134;16.980;2024-03-17T09:11:00;2.40;;;1.50;;
76848;SDS011;65814;51.134;16.980;2024-03-17T09:13:28;6.20;;;1.90;;
76848;SDS011;65814;51.134;16.980;2024-03-17T09:15:57;6.20;;;1.70;;
76848;SDS011;65814;51.134;16.980;2024-03-17T09:18:29;12.50;;;3.10;;
76848;SDS011;65814;51.134;16.980;2024-03-17T09:20:58;5.10;;;2.00;;
76848;SDS011;65814;51.134;16.980;2024-03-17T09:23:28;13.60;;;2.00;;
76848;SDS011;65814;51.134;16.980;2024-03-17T09:26:03;4.10;;;1.40;;
76848;SDS011;65814;51.134;16.980;2024-03-17T09:28:32;4.40;;;1.70;;
76848;SDS011;65814;51.134;16.980;2024-03-17T09:31:00;4.60;;;2.00;;
76848;SDS011;65814;51.134;16.980;2024-03-17T09:33:29;3.50;;;1.40;;
76848;SDS011;65814;51.134;16.980;2024-03-17T09:35:58;6.00;;;1.30;;
76848;SDS011;65814;51.134;16.980;2024-03-17T09:38:27;7.10;;;2.00;;
76848;SDS011;65814;51.134;16.980;2024-03-17T09:40:56;7.50;;;1.60;;
76848;SDS011;65814;51.134;16.980;2024-03-17T09:43:31;4.60;;;2.30;;
76848;SDS011;65814;51.134;16.980;2024-03-17T09:46:04;6.30;;;1.90;;
76848;SDS011;65814;51.134;16.980;2024-03-17T09:48:33;3.00;;;1.50;;
76848;SDS011;65814;51.134;16.980;2024-03-17T09:51:02;6.10;;;1.70;;
76848;SDS011;65814;51.134;16.980;2024-03-17T09:53:31;4.40;;;1.10;;
76848;SDS011;65814;51.134;16.980;2024-03-17T09:58:33;5.00;;;1.30;;
76848;SDS011;65814;51.134;16.980;2024-03-17T10:01:01;6.30;;;1.40;;
76848;SDS011;65814;51.134;16.980;2024-03-17T10:03:42;6.60;;;1.60;;
76848;SDS011;65814;51.134;16.980;2024-03-17T10:06:13;6.40;;;1.40;;
76848;SDS011;65814;51.134;16.980;2024-03-17T10:11:16;5.90;;;3.00;;
76848;SDS011;65814;51.134;16.980;2024-03-17T10:13:45;7.20;;;1.70;;
76848;SDS011;65814;51.134;16.980;2024-03-17T10:16:23;6.90;;;1.60;;
76848;SDS011;65814;51.134;16.980;2024-03-17T10:19:08;7.60;;;2.10;;
76848;SDS011;65814;51.134;16.980;2024-03-17T10:21:37;2.60;;;1.50;;
76848;SDS011;65814;51.134;16.980;2024-03-17T10:24:10;4.20;;;1.60;;
76848;SDS011;65814;51.134;16.980;2024-03-17T10:26:43;4.70;;;1.40;;
76848;SDS011;65814;51.134;16.980;2024-03-17T10:31:49;3.30;;;1.40;;
76848;SDS011;65814;51.134;16.980;2024-03-17T10:34:16;5.80;;;1.70;;
76848;SDS011;65814;51.134;16.980;2024-03-17T10:36:46;5.80;;;1.20;;
76848;SDS011;65814;51.134;16.980;2024-03-17T10:39:19;3.90;;;1.50;;
76848;SDS011;65814;51.134;16.980;2024-03-17T10:42:00;2.60;;;1.20;;
76848;SDS011;65814;51.134;16.980;2024-03-17T10:44:29;3.70;;;1.80;;
76848;SDS011;65814;51.134;16.980;2024-03-17T10:46:58;3.90;;;1.10;;
76848;SDS011;65814;51.134;16.980;2024-03-17T10:49:31;9.50;;;1.70;;
76848;SDS011;65814;51.134;16.980;2024-03-17T10:54:29;4.90;;;2.10;;
76848;SDS011;65814;51.134;16.980;2024-03-17T10:57:07;5.00;;;1.90;;
76848;SDS011;65814;51.134;16.980;2024-03-17T10:59:58;4.40;;;1.70;;
76848;SDS011;65814;51.134;16.980;2024-03-17T11:02:27;4.70;;;1.50;;
76848;SDS011;65814;51.134;16.980;2024-03-17T11:05:03;4.50;;;1.50;;
76848;SDS011;65814;51.134;16.980;2024-03-17T11:07:31;6.00;;;1.50;;
76848;SDS011;65814;51.134;16.980;2024-03-17T11:10:00;5.30;;;1.80;;
76848;SDS011;65814;51.134;16.980;2024-03-17T11:17:54;7.50;;;2.00;;
76848;SDS011;65814;51.134;16.980;2024-03-17T11:20:25;4.30;;;1.20;;
76848;SDS011;65814;51.134;16.980;2024-03-17T11:22:56;4.90;;;1.40;;
76848;SDS011;65814;51.134;16.980;2024-03-17T11:27:53;5.50;;;1.50;;
76848;SDS011;65814;51.134;16.980;2024-03-17T11:38:50;6.30;;;1.70;;
76848;SDS011;65814;51.134;16.980;2024-03-17T11:47:01;4.30;;;1.50;;
76848;SDS011;65814;51.134;16.980;2024-03-17T11:49:36;7.80;;;1.90;;
76848;SDS011;65814;51.134;16.980;2024-03-17T11:52:12;8.50;;;1.80;;
76848;SDS011;65814;51.134;16.980;2024-03-17T11:54:41;2.40;;;1.40;;
76848;SDS011;65814;51.134;16.980;2024-03-17T11:57:14;4.00;;;1.80;;
76848;SDS011;65814;51.134;16.980;2024-03-17T11:59:50;3.20;;;1.40;;
76848;SDS011;65814;51.134;16.980;2024-03-17T12:02:19;4.40;;;1.50;;
76848;SDS011;65814;51.134;16.980;2024-03-17T12:04:49;6.00;;;1.50;;
76848;SDS011;65814;51.134;16.980;2024-03-17T12:07:17;5.80;;;1.40;;
76848;SDS011;65814;51.134;16.980;2024-03-17T12:09:48;4.90;;;1.90;;
76848;SDS011;65814;51.134;16.980;2024-03-17T12:12:17;4.20;;;1.60;;
76848;SDS011;65814;51.134;16.980;2024-03-17T12:14:46;7.20;;;2.00;;
76848;SDS011;65814;51.134;16.980;2024-03-17T12:17:19;3.20;;;1.60;;
76848;SDS011;65814;51.134;16.980;2024-03-17T12:19:48;3.70;;;1.50;;
76848;SDS011;65814;51.134;16.980;2024-03-17T12:22:17;2.70;;;1.70;;
76848;SDS011;65814;51.134;16.980;2024-03-17T12:24:49;3.40;;;1.40;;
76848;SDS011;65814;51.134;16.980;2024-03-17T12:27:18;3.80;;;1.40;;
76848;SDS011;65814;51.134;16.980;2024-03-17T12:29:50;2.00;;;1.50;;
76848;SDS011;65814;51.134;16.980;2024-03-17T12:32:19;4.20;;;1.50;;
76848;SDS011;65814;51.134;16.980;2024-03-17T12:37:26;3.40;;;1.60;;
76848;SDS011;65814;51.134;16.980;2024-03-17T12:40:01;3.10;;;2.00;;
76848;SDS011;65814;51.134;16.980;2024-03-17T12:42:29;7.80;;;2.80;;
76848;SDS011;65814;51.134;16.980;2024-03-17T12:45:00;6.10;;;1.50;;
76848;SDS011;65814;51.134;16.980;2024-03-17T12:47:33;2.10;;;1.80;;
76848;SDS011;65814;51.134;16.980;2024-03-17T12:50:02;4.70;;;1.20;;
76848;SDS011;65814;51.134;16.980;2024-03-17T12:52:37;8.10;;;1.80;;
76848;SDS011;65814;51.134;16.980;2024-03-17T13:03:31;3.90;;;1.30;;
76848;SDS011;65814;51.134;16.980;2024-03-17T13:06:01;5.00;;;1.80;;
76848;SDS011;65814;51.134;16.980;2024-03-17T13:08:36;4.30;;;1.40;;
76848;SDS011;65814;51.134;16.980;2024-03-17T13:11:03;3.90;;;1.60;;
76848;SDS011;65814;51.134;16.980;2024-03-17T13:13:31;2.30;;;1.20;;
76848;SDS011;65814;51.134;16.980;2024-03-17T13:15:59;3.00;;;1.00;;
76848;SDS011;65814;51.134;16.980;2024-03-17T13:18:27;6.30;;;1.60;;
76848;SDS011;65814;51.134;16.980;2024-03-17T13:20:54;7.70;;;2.10;;
76848;SDS011;65814;51.134;16.980;2024-03-17T13:23:24;2.50;;;0.90;;
76848;SDS011;65814;51.134;16.980;2024-03-17T13:25:52;2.50;;;1.30;;
76848;SDS011;65814;51.134;16.980;2024-03-17T13:28:21;2.90;;;1.30;;
76848;SDS011;65814;51.134;16.980;2024-03-17T13:30:48;6.10;;;2.20;;
76848;SDS011;65814;51.134;16.980;2024-03-17T13:33:16;2.70;;;1.50;;
76848;SDS011;65814;51.134;16.980;2024-03-17T13:35:45;3.90;;;1.20;;
76848;SDS011;65814;51.134;16.980;2024-03-17T13:38:13;3.90;;;1.80;;
76848;SDS011;65814;51.134;16.980;2024-03-17T13:40:42;5.00;;;1.60;;
76848;SDS011;65814;51.134;16.980;2024-03-17T13:43:13;3.80;;;1.60;;
76848;SDS011;65814;51.134;16.980;2024-03-17T13:45:41;4.80;;;1.60;;
76848;SDS011;65814;51.134;16.980;2024-03-17T13:48:15;4.90;;;1.50;;
76848;SDS011;65814;51.134;16.980;2024-03-17T13:50:43;5.20;;;1.30;;
76848;SDS011;65814;51.134;16.980;2024-03-17T13:53:11;7.30;;;1.60;;
76848;SDS011;65814;51.134;16.980;2024-03-17T13:55:39;6.60;;;1.90;;
76848;SDS011;65814;51.134;16.980;2024-03-17T13:58:07;5.40;;;1.60;;
76848;SDS011;65814;51.134;16.980;2024-03-17T14:29:46;5.90;;;1.70;;
76848;SDS011;65814;51.134;16.980;2024-03-17T14:32:16;5.20;;;1.60;;
76848;SDS011;65814;51.134;16.980;2024-03-17T14:34:45;5.50;;;1.80;;
76848;SDS011;65814;51.134;16.980;2024-03-17T14:37:14;4.50;;;1.40;;
76848;SDS011;65814;51.134;16.980;2024-03-17T14:39:41;5.10;;;1.90;;
76848;SDS011;65814;51.134;16.980;2024-03-17T14:42:09;4.60;;;1.60;;
76848;SDS011;65814;51.134;16.980;2024-03-17T14:44:38;5.50;;;1.90;;
76848;SDS011;65814;51.134;16.980;2024-03-17T14:47:06;5.60;;;1.70;;
76848;SDS011;65814;51.134;16.980;2024-03-17T14:49:33;4.80;;;2.00;;
76848;SDS011;65814;51.134;16.980;2024-03-17T14:52:02;3.30;;;1.00;;
76848;SDS011;65814;51.134;16.980;2024-03-17T14:54:35;5.10;;;1.50;;
76848;SDS011;65814;51.134;16.980;2024-03-17T14:57:02;2.40;;;1.70;;
76848;SDS011;65814;51.134;16.980;2024-03-17T14:59:30;5.20;;;1.20;;
76848;SDS011;65814;51.134;16.980;2024-03-17T15:01:57;5.90;;;1.50;;
76848;SDS011;65814;51.134;16.980;2024-03-17T15:04:25;3.00;;;1.30;;
76848;SDS011;65814;51.134;16.980;2024-03-17T15:06:54;5.90;;;1.60;;
76848;SDS011;65814;51.134;16.980;2024-03-17T15:09:22;4.70;;;1.20;;
76848;SDS011;65814;51.134;16.980;2024-03-17T15:11:49;4.10;;;1.70;;
76848;SDS011;65814;51.134;16.980;2024-03-17T15:14:17;5.70;;;1.60;;
76848;SDS011;65814;51.134;16.980;2024-03-17T15:16:45;4.00;;;1.40;;
76848;SDS011;65814;51.134;16.980;2024-03-17T15:19:13;4.50;;;1.40;;
76848;SDS011;65814;51.134;16.980;2024-03-17T15:21:40;2.30;;;1.10;;
76848;SDS011;65814;51.134;16.980;2024-03-17T15:24:09;3.70;;;1.40;;
76848;SDS011;65814;51.134;16.980;2024-03-17T15:26:37;3.20;;;1.30;;
76848;SDS011;65814;51.134;16.980;2024-03-17T15:29:05;2.70;;;1.40;;
76848;SDS011;65814;51.134;16.980;2024-03-17T15:31:33;2.30;;;1.30;;
76848;SDS011;65814;51.134;16.980;2024-03-17T15:34:00;3.90;;;1.50;;
76848;SDS011;65814;51.134;16.980;2024-03-17T15:36:28;2.80;;;1.30;;
76848;SDS011;65814;51.134;16.980;2024-03-17T15:38:57;5.70;;;1.60;;
76848;SDS011;65814;51.134;16.980;2024-03-17T15:41:24;4.30;;;1.50;;
76848;SDS011;65814;51.134;16.980;2024-03-17T15:43:52;3.20;;;1.20;;
76848;SDS011;65814;51.134;16.980;2024-03-17T15:46:20;2.10;;;1.30;;
76848;SDS011;65814;51.134;16.980;2024-03-17T15:48:49;4.70;;;1.80;;
76848;SDS011;65814;51.134;16.980;2024-03-17T15:51:17;3.70;;;1.80;;
76848;SDS011;65814;51.134;16.980;2024-03-17T15:53:46;5.30;;;2.00;;
76848;SDS011;65814;51.134;16.980;2024-03-17T15:56:15;3.10;;;1.80;;
76848;SDS011;65814;51.134;16.980;2024-03-17T15:58:43;2.60;;;1.20;;
76848;SDS011;65814;51.134;16.980;2024-03-17T16:01:11;4.00;;;1.90;;